sensor_id;sensor_type;location;lat;lon;timestamp;P1;durP1;ratioP1;P2;durP2;ratioP2
74935;SDS011;63501;55.570;37.488;2022-11-20T00:01:16;5.15;;;2.85;;
74935;SDS011;63501;55.570;37.488;2022-11-20T00:03:43;6.63;;;3.20;;
74935;SDS011;63501;55.570;37.488;2022-11-20T00:06:10;8.93;;;3.75;;
74935;SDS011;63501;55.570;37.488;2022-11-20T00:08:37;6.07;;;2.90;;
74935;SDS011;63501;55.570;37.488;2022-11-20T00:11:06;5.82;;;2.90;;
74935;SDS011;63501;55.570;37.488;2022-11-20T00:13:33;5.28;;;2.63;;
74935;SDS011;63501;55.570;37.488;2022-11-20T00:16:00;5.88;;;2.70;;
74935;SDS011;63501;55.570;37.488;2022-11-20T00:18:27;5.50;;;2.63;;
74935;SDS011;63501;55.570;37.488;2022-11-20T00:20:53;6.30;;;3.20;;
74935;SDS011;63501;55.570;37.488;2022-11-20T00:23:19;7.40;;;3.35;;
74935;SDS011;63501;55.570;37.488;2022-11-20T00:25:45;6.43;;;2.95;;
74935;SDS011;63501;55.570;37.488;2022-11-20T00:28:11;7.78;;;3.75;;
74935;SDS011;63501;55.570;37.488;2022-11-20T00:30:37;6.78;;;3.05;;
74935;SDS011;63501;55.570;37.488;2022-11-20T00:33:02;6.05;;;2.90;;
74935;SDS011;63501;55.570;37.488;2022-11-20T00:35:28;6.82;;;3.20;;
74935;SDS011;63501;55.570;37.488;2022-11-20T00:37:53;7.40;;;3.17;;
74935;SDS011;63501;55.570;37.488;2022-11-20T00:40:19;7.20;;;3.42;;
74935;SDS011;63501;55.570;37.488;2022-11-20T00:42:44;6.22;;;3.30;;
74935;SDS011;63501;55.570;37.488;2022-11-20T00:45:10;7.85;;;3.80;;
74935;SDS011;63501;55.570;37.488;2022-11-20T00:47:35;5.10;;;2.70;;
74935;SDS011;63501;55.570;37.488;2022-11-20T00:50:01;6.50;;;3.20;;
74935;SDS011;63501;55.570;37.488;2022-11-20T00:52:28;4.30;;;2.28;;
74935;SDS011;63501;55.570;37.488;2022-11-20T00:54:54;7.35;;;3.67;;
74935;SDS011;63501;55.570;37.488;2022-11-20T00:57:19;4.70;;;2.50;;
74935;SDS011;63501;55.570;37.488;2022-11-20T00:59:45;9.45;;;4.15;;
74935;SDS011;63501;55.570;37.488;2022-11-20T01:02:10;7.72;;;3.75;;
74935;SDS011;63501;55.570;37.488;2022-11-20T01:04:36;7.97;;;3.38;;
74935;SDS011;63501;55.570;37.488;2022-11-20T01:07:01;5.47;;;2.58;;
74935;SDS011;63501;55.570;37.488;2022-11-20T01:09:27;6.93;;;3.63;;
74935;SDS011;63501;55.570;37.488;2022-11-20T01:11:52;5.13;;;2.60;;
74935;SDS011;63501;55.570;37.488;2022-11-20T01:14:18;5.65;;;2.80;;
74935;SDS011;63501;55.570;37.488;2022-11-20T01:16:46;9.90;;;4.20;;
74935;SDS011;63501;55.570;37.488;2022-11-20T01:19:14;7.03;;;3.50;;
74935;SDS011;63501;55.570;37.488;2022-11-20T01:21:43;8.60;;;4.22;;
74935;SDS011;63501;55.570;37.488;2022-11-20T01:24:11;7.18;;;3.10;;
74935;SDS011;63501;55.570;37.488;2022-11-20T01:26:39;5.93;;;2.78;;
74935;SDS011;63501;55.570;37.488;2022-11-20T01:29:13;7.35;;;3.25;;
74935;SDS011;63501;55.570;37.488;2022-11-20T01:31:44;8.13;;;4.18;;
74935;SDS011;63501;55.570;37.488;2022-11-20T01:34:11;5.95;;;3.42;;
74935;SDS011;63501;55.570;37.488;2022-11-20T01:36:39;5.88;;;2.78;;
74935;SDS011;63501;55.570;37.488;2022-11-20T01:39:12;7.88;;;3.67;;
74935;SDS011;63501;55.570;37.488;2022-11-20T01:41:40;7.32;;;3.30;;
74935;SDS011;63501;55.570;37.488;2022-11-20T01:47:15;5.63;;;2.78;;
74935;SDS011;63501;55.570;37.488;2022-11-20T01:52:49;4.47;;;2.47;;
74935;SDS011;63501;55.570;37.488;2022-11-20T01:55:41;5.65;;;3.28;;
74935;SDS011;63501;55.570;37.488;2022-11-20T01:58:12;3.92;;;2.20;;
74935;SDS011;63501;55.570;37.488;2022-11-20T02:00:38;4.88;;;2.63;;
74935;SDS011;63501;55.570;37.488;2022-11-20T02:03:07;8.95;;;4.20;;
74935;SDS011;63501;55.570;37.488;2022-11-20T02:05:53;7.40;;;3.35;;
74935;SDS011;63501;55.570;37.488;2022-11-20T02:08:27;6.63;;;3.65;;
74935;SDS011;63501;55.570;37.488;2022-11-20T02:10:53;8.98;;;4.18;;
74935;SDS011;63501;55.570;37.488;2022-11-20T02:13:19;7.45;;;3.90;;
74935;SDS011;63501;55.570;37.488;2022-11-20T02:16:03;7.60;;;3.47;;
74935;SDS011;63501;55.570;37.488;2022-11-20T02:18:29;10.15;;;4.90;;
74935;SDS011;63501;55.570;37.488;2022-11-20T02:20:59;8.13;;;4.00;;
74935;SDS011;63501;55.570;37.488;2022-11-20T02:23:39;7.65;;;3.65;;
74935;SDS011;63501;55.570;37.488;2022-11-20T02:26:27;7.65;;;3.75;;
74935;SDS011;63501;55.570;37.488;2022-11-20T02:28:55;8.18;;;3.95;;
74935;SDS011;63501;55.570;37.488;2022-11-20T02:31:21;8.77;;;3.90;;
74935;SDS011;63501;55.570;37.488;2022-11-20T02:33:47;7.70;;;3.35;;
74935;SDS011;63501;55.570;37.488;2022-11-20T02:36:14;5.85;;;2.80;;
74935;SDS011;63501;55.570;37.488;2022-11-20T02:41:07;6.30;;;3.28;;
74935;SDS011;63501;55.570;37.488;2022-11-20T02:43:32;5.40;;;3.10;;
74935;SDS011;63501;55.570;37.488;2022-11-20T02:45:58;6.70;;;3.55;;
74935;SDS011;63501;55.570;37.488;2022-11-20T02:48:23;6.50;;;2.75;;
74935;SDS011;63501;55.570;37.488;2022-11-20T02:50:49;10.50;;;4.05;;
74935;SDS011;63501;55.570;37.488;2022-11-20T02:53:15;6.57;;;3.50;;
74935;SDS011;63501;55.570;37.488;2022-11-20T02:55:40;7.28;;;3.30;;
74935;SDS011;63501;55.570;37.488;2022-11-20T02:58:06;7.95;;;3.28;;
74935;SDS011;63501;55.570;37.488;2022-11-20T03:00:31;6.72;;;3.20;;
74935;SDS011;63501;55.570;37.488;2022-11-20T03:02:57;7.30;;;3.40;;
74935;SDS011;63501;55.570;37.488;2022-11-20T03:05:22;6.07;;;2.85;;
74935;SDS011;63501;55.570;37.488;2022-11-20T03:07:48;4.15;;;2.60;;
74935;SDS011;63501;55.570;37.488;2022-11-20T03:10:14;5.80;;;3.20;;
74935;SDS011;63501;55.570;37.488;2022-11-20T03:12:39;4.00;;;2.25;;
74935;SDS011;63501;55.570;37.488;2022-11-20T03:15:05;6.95;;;3.63;;
74935;SDS011;63501;55.570;37.488;2022-11-20T03:17:31;4.53;;;2.35;;
74935;SDS011;63501;55.570;37.488;2022-11-20T03:19:56;6.47;;;3.38;;
74935;SDS011;63501;55.570;37.488;2022-11-20T03:22:22;8.75;;;4.05;;
74935;SDS011;63501;55.570;37.488;2022-11-20T03:24:47;8.23;;;3.75;;
74935;SDS011;63501;55.570;37.488;2022-11-20T03:27:14;5.35;;;2.95;;
74935;SDS011;63501;55.570;37.488;2022-11-20T03:29:40;4.68;;;2.10;;
74935;SDS011;63501;55.570;37.488;2022-11-20T03:32:05;6.10;;;3.15;;
74935;SDS011;63501;55.570;37.488;2022-11-20T03:34:31;8.35;;;3.60;;
74935;SDS011;63501;55.570;37.488;2022-11-20T03:36:56;7.63;;;3.20;;
74935;SDS011;63501;55.570;37.488;2022-11-20T03:39:22;6.20;;;3.05;;
74935;SDS011;63501;55.570;37.488;2022-11-20T03:41:47;5.68;;;2.53;;
74935;SDS011;63501;55.570;37.488;2022-11-20T03:44:13;5.38;;;2.95;;
74935;SDS011;63501;55.570;37.488;2022-11-20T03:46:38;6.75;;;3.28;;
74935;SDS011;63501;55.570;37.488;2022-11-20T03:49:05;8.68;;;4.15;;
74935;SDS011;63501;55.570;37.488;2022-11-20T03:51:32;5.47;;;2.47;;
74935;SDS011;63501;55.570;37.488;2022-11-20T03:53:59;6.03;;;2.28;;
74935;SDS011;63501;55.570;37.488;2022-11-20T03:56:28;5.97;;;3.15;;
74935;SDS011;63501;55.570;37.488;2022-11-20T03:58:55;6.97;;;2.97;;
74935;SDS011;63501;55.570;37.488;2022-11-20T04:01:22;6.88;;;3.13;;
74935;SDS011;63501;55.570;37.488;2022-11-20T04:03:51;7.38;;;3.50;;
74935;SDS011;63501;55.570;37.488;2022-11-20T04:06:19;4.55;;;2.45;;
74935;SDS011;63501;55.570;37.488;2022-11-20T04:08:46;5.82;;;2.80;;
74935;SDS011;63501;55.570;37.488;2022-11-20T04:13:37;7.03;;;3.20;;
74935;SDS011;63501;55.570;37.488;2022-11-20T04:16:04;7.60;;;3.40;;
74935;SDS011;63501;55.570;37.488;2022-11-20T04:18:30;6.50;;;2.92;;
74935;SDS011;63501;55.570;37.488;2022-11-20T04:20:57;5.90;;;2.92;;
74935;SDS011;63501;55.570;37.488;2022-11-20T04:23:23;7.43;;;3.50;;
74935;SDS011;63501;55.570;37.488;2022-11-20T04:25:49;7.78;;;3.65;;
74935;SDS011;63501;55.570;37.488;2022-11-20T04:28:14;5.95;;;2.90;;
74935;SDS011;63501;55.570;37.488;2022-11-20T04:30:40;6.20;;;2.60;;
74935;SDS011;63501;55.570;37.488;2022-11-20T04:33:06;6.35;;;3.30;;
74935;SDS011;63501;55.570;37.488;2022-11-20T04:35:33;5.65;;;2.83;;
74935;SDS011;63501;55.570;37.488;2022-11-20T04:38:00;6.43;;;2.70;;
74935;SDS011;63501;55.570;37.488;2022-11-20T04:40:25;5.90;;;2.88;;
74935;SDS011;63501;55.570;37.488;2022-11-20T04:42:52;5.80;;;2.60;;
74935;SDS011;63501;55.570;37.488;2022-11-20T04:45:17;8.15;;;3.13;;
74935;SDS011;63501;55.570;37.488;2022-11-20T04:47:43;6.95;;;3.05;;
74935;SDS011;63501;55.570;37.488;2022-11-20T04:50:08;7.65;;;3.38;;
74935;SDS011;63501;55.570;37.488;2022-11-20T04:52:34;7.28;;;4.10;;
74935;SDS011;63501;55.570;37.488;2022-11-20T04:55:00;4.97;;;3.00;;
74935;SDS011;63501;55.570;37.488;2022-11-20T04:57:25;6.82;;;4.22;;
74935;SDS011;63501;55.570;37.488;2022-11-20T04:59:51;6.78;;;3.05;;
74935;SDS011;63501;55.570;37.488;2022-11-20T05:02:16;5.43;;;2.72;;
74935;SDS011;63501;55.570;37.488;2022-11-20T05:04:42;7.30;;;3.30;;
74935;SDS011;63501;55.570;37.488;2022-11-20T05:07:07;8.00;;;3.22;;
74935;SDS011;63501;55.570;37.488;2022-11-20T05:09:33;8.55;;;3.88;;
74935;SDS011;63501;55.570;37.488;2022-11-20T05:11:59;7.63;;;3.85;;
74935;SDS011;63501;55.570;37.488;2022-11-20T05:14:24;6.28;;;2.85;;
74935;SDS011;63501;55.570;37.488;2022-11-20T05:16:50;7.43;;;3.38;;
74935;SDS011;63501;55.570;37.488;2022-11-20T05:19:15;8.90;;;3.90;;
74935;SDS011;63501;55.570;37.488;2022-11-20T05:21:41;5.35;;;2.60;;
74935;SDS011;63501;55.570;37.488;2022-11-20T05:24:06;5.90;;;2.35;;
74935;SDS011;63501;55.570;37.488;2022-11-20T05:26:32;6.70;;;2.53;;
74935;SDS011;63501;55.570;37.488;2022-11-20T05:28:58;6.07;;;2.78;;
74935;SDS011;63501;55.570;37.488;2022-11-20T05:31:24;6.13;;;2.72;;
74935;SDS011;63501;55.570;37.488;2022-11-20T05:33:50;7.95;;;3.35;;
74935;SDS011;63501;55.570;37.488;2022-11-20T05:36:16;5.50;;;2.75;;
74935;SDS011;63501;55.570;37.488;2022-11-20T05:38:42;6.63;;;2.88;;
74935;SDS011;63501;55.570;37.488;2022-11-20T05:43:36;3.22;;;1.70;;
74935;SDS011;63501;55.570;37.488;2022-11-20T05:46:03;6.63;;;2.70;;
74935;SDS011;63501;55.570;37.488;2022-11-20T05:48:30;7.72;;;3.20;;
74935;SDS011;63501;55.570;37.488;2022-11-20T05:50:57;9.15;;;4.15;;
74935;SDS011;63501;55.570;37.488;2022-11-20T05:53:24;5.88;;;2.50;;
74935;SDS011;63501;55.570;37.488;2022-11-20T05:55:56;8.90;;;3.67;;
74935;SDS011;63501;55.570;37.488;2022-11-20T05:58:26;8.68;;;4.10;;
74935;SDS011;63501;55.570;37.488;2022-11-20T06:00:51;10.50;;;4.20;;
74935;SDS011;63501;55.570;37.488;2022-11-20T06:03:17;10.55;;;4.30;;
74935;SDS011;63501;55.570;37.488;2022-11-20T06:05:43;7.35;;;2.78;;
74935;SDS011;63501;55.570;37.488;2022-11-20T06:08:08;10.30;;;3.97;;
74935;SDS011;63501;55.570;37.488;2022-11-20T06:10:34;4.93;;;2.53;;
74935;SDS011;63501;55.570;37.488;2022-11-20T06:12:59;7.38;;;3.40;;
74935;SDS011;63501;55.570;37.488;2022-11-20T06:15:25;8.85;;;4.25;;
74935;SDS011;63501;55.570;37.488;2022-11-20T06:17:53;8.73;;;4.40;;
74935;SDS011;63501;55.570;37.488;2022-11-20T06:20:20;10.25;;;3.00;;
74935;SDS011;63501;55.570;37.488;2022-11-20T06:22:46;7.15;;;3.53;;
74935;SDS011;63501;55.570;37.488;2022-11-20T06:25:12;8.23;;;3.92;;
74935;SDS011;63501;55.570;37.488;2022-11-20T06:27:38;6.38;;;3.05;;
74935;SDS011;63501;55.570;37.488;2022-11-20T06:30:04;9.18;;;4.10;;
74935;SDS011;63501;55.570;37.488;2022-11-20T06:32:30;9.98;;;4.78;;
74935;SDS011;63501;55.570;37.488;2022-11-20T06:34:56;12.57;;;4.68;;
74935;SDS011;63501;55.570;37.488;2022-11-20T06:37:21;7.22;;;2.92;;
74935;SDS011;63501;55.570;37.488;2022-11-20T06:39:47;9.57;;;4.25;;
74935;SDS011;63501;55.570;37.488;2022-11-20T06:42:13;10.55;;;4.90;;
74935;SDS011;63501;55.570;37.488;2022-11-20T06:44:39;9.50;;;4.20;;
74935;SDS011;63501;55.570;37.488;2022-11-20T06:47:04;8.52;;;3.75;;
74935;SDS011;63501;55.570;37.488;2022-11-20T06:49:30;9.45;;;4.45;;
74935;SDS011;63501;55.570;37.488;2022-11-20T06:51:55;6.03;;;2.65;;
74935;SDS011;63501;55.570;37.488;2022-11-20T06:54:21;8.07;;;3.45;;
74935;SDS011;63501;55.570;37.488;2022-11-20T06:56:47;6.00;;;2.80;;
74935;SDS011;63501;55.570;37.488;2022-11-20T06:59:13;8.70;;;4.15;;
74935;SDS011;63501;55.570;37.488;2022-11-20T07:01:39;11.43;;;5.22;;
74935;SDS011;63501;55.570;37.488;2022-11-20T07:04:04;7.55;;;3.22;;
74935;SDS011;63501;55.570;37.488;2022-11-20T07:06:30;8.50;;;3.28;;
74935;SDS011;63501;55.570;37.488;2022-11-20T07:08:56;5.32;;;2.70;;
74935;SDS011;63501;55.570;37.488;2022-11-20T07:11:22;6.32;;;2.72;;
74935;SDS011;63501;55.570;37.488;2022-11-20T07:13:48;7.50;;;3.40;;
74935;SDS011;63501;55.570;37.488;2022-11-20T07:16:14;7.70;;;2.65;;
74935;SDS011;63501;55.570;37.488;2022-11-20T07:18:39;8.25;;;3.30;;
74935;SDS011;63501;55.570;37.488;2022-11-20T07:21:06;6.82;;;3.25;;
74935;SDS011;63501;55.570;37.488;2022-11-20T07:26:05;5.68;;;2.33;;
74935;SDS011;63501;55.570;37.488;2022-11-20T07:28:32;11.40;;;4.35;;
74935;SDS011;63501;55.570;37.488;2022-11-20T07:30:58;12.38;;;5.45;;
74935;SDS011;63501;55.570;37.488;2022-11-20T07:33:24;13.70;;;6.15;;
74935;SDS011;63501;55.570;37.488;2022-11-20T07:35:50;10.52;;;5.43;;
74935;SDS011;63501;55.570;37.488;2022-11-20T07:38:15;9.63;;;4.60;;
74935;SDS011;63501;55.570;37.488;2022-11-20T07:40:41;9.93;;;4.82;;
74935;SDS011;63501;55.570;37.488;2022-11-20T07:43:06;11.15;;;5.03;;
74935;SDS011;63501;55.570;37.488;2022-11-20T07:45:32;10.95;;;5.32;;
74935;SDS011;63501;55.570;37.488;2022-11-20T07:47:58;14.50;;;6.20;;
74935;SDS011;63501;55.570;37.488;2022-11-20T07:50:23;12.77;;;5.43;;
74935;SDS011;63501;55.570;37.488;2022-11-20T07:52:50;11.18;;;6.03;;
74935;SDS011;63501;55.570;37.488;2022-11-20T07:55:17;14.77;;;5.70;;
74935;SDS011;63501;55.570;37.488;2022-11-20T07:57:42;12.70;;;5.25;;
74935;SDS011;63501;55.570;37.488;2022-11-20T08:00:09;9.57;;;4.60;;
74935;SDS011;63501;55.570;37.488;2022-11-20T08:02:39;12.30;;;5.47;;
74935;SDS011;63501;55.570;37.488;2022-11-20T08:05:06;8.32;;;3.90;;
74935;SDS011;63501;55.570;37.488;2022-11-20T08:07:36;7.10;;;3.53;;
74935;SDS011;63501;55.570;37.488;2022-11-20T08:10:06;11.95;;;4.90;;
74935;SDS011;63501;55.570;37.488;2022-11-20T08:12:33;7.25;;;3.05;;
74935;SDS011;63501;55.570;37.488;2022-11-20T08:15:17;9.98;;;3.88;;
74935;SDS011;63501;55.570;37.488;2022-11-20T08:17:42;11.07;;;4.80;;
74935;SDS011;63501;55.570;37.488;2022-11-20T08:20:08;9.20;;;4.20;;
74935;SDS011;63501;55.570;37.488;2022-11-20T08:22:34;8.13;;;3.60;;
74935;SDS011;63501;55.570;37.488;2022-11-20T08:25:00;11.70;;;5.45;;
74935;SDS011;63501;55.570;37.488;2022-11-20T08:27:25;10.73;;;4.68;;
74935;SDS011;63501;55.570;37.488;2022-11-20T08:29:51;12.73;;;4.78;;
74935;SDS011;63501;55.570;37.488;2022-11-20T08:32:17;10.38;;;5.35;;
74935;SDS011;63501;55.570;37.488;2022-11-20T08:34:42;12.57;;;5.10;;
74935;SDS011;63501;55.570;37.488;2022-11-20T08:37:08;7.15;;;3.20;;
74935;SDS011;63501;55.570;37.488;2022-11-20T08:39:33;13.13;;;6.20;;
74935;SDS011;63501;55.570;37.488;2022-11-20T08:41:59;9.80;;;4.05;;
74935;SDS011;63501;55.570;37.488;2022-11-20T08:44:24;7.45;;;3.35;;
74935;SDS011;63501;55.570;37.488;2022-11-20T08:46:50;5.97;;;2.70;;
74935;SDS011;63501;55.570;37.488;2022-11-20T08:49:16;5.15;;;2.58;;
74935;SDS011;63501;55.570;37.488;2022-11-20T08:51:43;6.43;;;2.63;;
74935;SDS011;63501;55.570;37.488;2022-11-20T08:54:09;5.18;;;2.33;;
74935;SDS011;63501;55.570;37.488;2022-11-20T08:56:34;9.25;;;4.35;;
74935;SDS011;63501;55.570;37.488;2022-11-20T08:59:00;7.40;;;3.55;;
74935;SDS011;63501;55.570;37.488;2022-11-20T09:01:26;11.57;;;4.68;;
74935;SDS011;63501;55.570;37.488;2022-11-20T09:03:54;13.18;;;4.20;;
74935;SDS011;63501;55.570;37.488;2022-11-20T09:06:20;9.55;;;4.00;;
74935;SDS011;63501;55.570;37.488;2022-11-20T09:08:46;10.38;;;4.07;;
74935;SDS011;63501;55.570;37.488;2022-11-20T09:11:12;17.45;;;7.13;;
74935;SDS011;63501;55.570;37.488;2022-11-20T09:13:37;15.25;;;6.43;;
74935;SDS011;63501;55.570;37.488;2022-11-20T09:16:04;20.00;;;8.30;;
74935;SDS011;63501;55.570;37.488;2022-11-20T09:18:31;19.50;;;6.88;;
74935;SDS011;63501;55.570;37.488;2022-11-20T09:20:59;19.67;;;8.07;;
74935;SDS011;63501;55.570;37.488;2022-11-20T09:23:27;18.15;;;7.65;;
74935;SDS011;63501;55.570;37.488;2022-11-20T09:25:55;13.98;;;5.63;;
74935;SDS011;63501;55.570;37.488;2022-11-20T09:28:25;14.27;;;5.30;;
74935;SDS011;63501;55.570;37.488;2022-11-20T09:30:51;13.70;;;5.30;;
74935;SDS011;63501;55.570;37.488;2022-11-20T09:33:17;15.93;;;6.40;;
74935;SDS011;63501;55.570;37.488;2022-11-20T09:35:43;17.05;;;6.82;;
74935;SDS011;63501;55.570;37.488;2022-11-20T09:38:09;12.00;;;4.97;;
74935;SDS011;63501;55.570;37.488;2022-11-20T09:40:37;18.77;;;7.80;;
74935;SDS011;63501;55.570;37.488;2022-11-20T09:49:20;11.02;;;3.95;;
74935;SDS011;63501;55.570;37.488;2022-11-20T09:52:04;9.63;;;3.42;;
74935;SDS011;63501;55.570;37.488;2022-11-20T09:54:33;7.82;;;2.72;;
74935;SDS011;63501;55.570;37.488;2022-11-20T09:57:03;8.63;;;3.45;;
74935;SDS011;63501;55.570;37.488;2022-11-20T09:59:36;7.90;;;3.25;;
74935;SDS011;63501;55.570;37.488;2022-11-20T10:02:12;8.20;;;3.03;;
74935;SDS011;63501;55.570;37.488;2022-11-20T10:04:43;14.90;;;5.35;;
74935;SDS011;63501;55.570;37.488;2022-11-20T10:09:49;11.48;;;4.45;;
74935;SDS011;63501;55.570;37.488;2022-11-20T10:12:31;17.77;;;7.65;;
74935;SDS011;63501;55.570;37.488;2022-11-20T10:15:10;7.55;;;3.15;;
74935;SDS011;63501;55.570;37.488;2022-11-20T10:18:02;10.13;;;3.70;;
74935;SDS011;63501;55.570;37.488;2022-11-20T10:20:41;10.10;;;4.38;;
74935;SDS011;63501;55.570;37.488;2022-11-20T10:31:04;8.93;;;4.40;;
74935;SDS011;63501;55.570;37.488;2022-11-20T10:33:39;8.85;;;3.58;;
74935;SDS011;63501;55.570;37.488;2022-11-20T10:36:30;11.32;;;4.50;;
74935;SDS011;63501;55.570;37.488;2022-11-20T10:38:59;10.02;;;4.78;;
74935;SDS011;63501;55.570;37.488;2022-11-20T10:41:32;11.02;;;4.75;;
74935;SDS011;63501;55.570;37.488;2022-11-20T10:44:09;16.45;;;6.25;;
74935;SDS011;63501;55.570;37.488;2022-11-20T10:46:37;11.07;;;4.82;;
74935;SDS011;63501;55.570;37.488;2022-11-20T10:49:53;14.70;;;6.05;;
74935;SDS011;63501;55.570;37.488;2022-11-20T10:57:47;10.20;;;5.57;;
74935;SDS011;63501;55.570;37.488;2022-11-20T11:00:35;8.65;;;4.40;;
74935;SDS011;63501;55.570;37.488;2022-11-20T11:03:00;11.98;;;4.70;;
74935;SDS011;63501;55.570;37.488;2022-11-20T11:05:33;7.15;;;3.97;;
74935;SDS011;63501;55.570;37.488;2022-11-20T11:08:00;11.57;;;4.70;;
74935;SDS011;63501;55.570;37.488;2022-11-20T11:10:28;9.48;;;4.88;;
74935;SDS011;63501;55.570;37.488;2022-11-20T11:13:23;10.05;;;4.72;;
74935;SDS011;63501;55.570;37.488;2022-11-20T11:15:51;11.88;;;5.40;;
74935;SDS011;63501;55.570;37.488;2022-11-20T11:18:27;14.35;;;7.00;;
74935;SDS011;63501;55.570;37.488;2022-11-20T11:20:55;14.02;;;6.53;;
74935;SDS011;63501;55.570;37.488;2022-11-20T11:26:04;8.95;;;4.75;;
74935;SDS011;63501;55.570;37.488;2022-11-20T11:28:32;9.57;;;5.18;;
74935;SDS011;63501;55.570;37.488;2022-11-20T11:30:58;6.93;;;3.03;;
74935;SDS011;63501;55.570;37.488;2022-11-20T11:33:27;11.32;;;4.20;;
74935;SDS011;63501;55.570;37.488;2022-11-20T11:35:58;15.30;;;6.50;;
74935;SDS011;63501;55.570;37.488;2022-11-20T11:38:44;11.05;;;5.20;;
74935;SDS011;63501;55.570;37.488;2022-11-20T11:41:12;14.40;;;6.82;;
74935;SDS011;63501;55.570;37.488;2022-11-20T11:43:53;11.93;;;5.55;;
74935;SDS011;63501;55.570;37.488;2022-11-20T11:46:49;13.20;;;6.18;;
74935;SDS011;63501;55.570;37.488;2022-11-20T11:49:20;14.57;;;4.88;;
74935;SDS011;63501;55.570;37.488;2022-11-20T11:54:16;13.20;;;5.18;;
74935;SDS011;63501;55.570;37.488;2022-11-20T11:56:48;14.07;;;5.65;;
74935;SDS011;63501;55.570;37.488;2022-11-20T12:10:15;7.10;;;3.50;;
74935;SDS011;63501;55.570;37.488;2022-11-20T12:12:47;9.27;;;4.68;;
74935;SDS011;63501;55.570;37.488;2022-11-20T12:15:25;6.07;;;3.40;;
74935;SDS011;63501;55.570;37.488;2022-11-20T12:17:55;6.15;;;2.90;;
74935;SDS011;63501;55.570;37.488;2022-11-20T12:20:22;6.68;;;3.58;;
74935;SDS011;63501;55.570;37.488;2022-11-20T12:23:02;11.57;;;5.30;;
74935;SDS011;63501;55.570;37.488;2022-11-20T12:26:13;9.57;;;4.88;;
74935;SDS011;63501;55.570;37.488;2022-11-20T12:31:40;16.58;;;7.03;;
74935;SDS011;63501;55.570;37.488;2022-11-20T12:37:02;17.52;;;7.35;;
74935;SDS011;63501;55.570;37.488;2022-11-20T12:39:50;17.42;;;7.05;;
74935;SDS011;63501;55.570;37.488;2022-11-20T12:42:34;12.63;;;5.68;;
74935;SDS011;63501;55.570;37.488;2022-11-20T13:02:25;13.90;;;5.90;;
74935;SDS011;63501;55.570;37.488;2022-11-20T13:07:35;9.68;;;4.65;;
74935;SDS011;63501;55.570;37.488;2022-11-20T13:10:01;12.00;;;5.28;;
74935;SDS011;63501;55.570;37.488;2022-11-20T13:15:08;13.45;;;5.75;;
74935;SDS011;63501;55.570;37.488;2022-11-20T13:18:02;13.38;;;5.90;;
74935;SDS011;63501;55.570;37.488;2022-11-20T13:20:32;9.45;;;4.38;;
74935;SDS011;63501;55.570;37.488;2022-11-20T13:23:00;11.02;;;5.03;;
74935;SDS011;63501;55.570;37.488;2022-11-20T13:27:56;15.20;;;7.55;;
74935;SDS011;63501;55.570;37.488;2022-11-20T13:32:54;15.50;;;6.97;;
74935;SDS011;63501;55.570;37.488;2022-11-20T13:35:25;17.40;;;7.68;;
74935;SDS011;63501;55.570;37.488;2022-11-20T13:40:33;12.30;;;5.85;;
74935;SDS011;63501;55.570;37.488;2022-11-20T13:43:19;10.52;;;4.32;;
74935;SDS011;63501;55.570;37.488;2022-11-20T13:46:05;14.68;;;5.60;;
74935;SDS011;63501;55.570;37.488;2022-11-20T13:48:42;17.63;;;7.65;;
74935;SDS011;63501;55.570;37.488;2022-11-20T14:02:38;10.45;;;5.10;;
74935;SDS011;63501;55.570;37.488;2022-11-20T14:05:04;11.05;;;5.18;;
74935;SDS011;63501;55.570;37.488;2022-11-20T14:07:40;12.23;;;5.40;;
74935;SDS011;63501;55.570;37.488;2022-11-20T14:10:24;8.27;;;4.38;;
74935;SDS011;63501;55.570;37.488;2022-11-20T14:12:51;7.03;;;3.67;;
74935;SDS011;63501;55.570;37.488;2022-11-20T14:15:28;15.80;;;6.63;;
74935;SDS011;63501;55.570;37.488;2022-11-20T14:17:55;15.35;;;6.43;;
74935;SDS011;63501;55.570;37.488;2022-11-20T14:20:22;15.10;;;7.03;;
74935;SDS011;63501;55.570;37.488;2022-11-20T14:22:51;13.48;;;5.82;;
74935;SDS011;63501;55.570;37.488;2022-11-20T14:27:50;15.98;;;6.47;;
74935;SDS011;63501;55.570;37.488;2022-11-20T14:30:38;12.27;;;5.45;;
74935;SDS011;63501;55.570;37.488;2022-11-20T14:33:09;14.15;;;6.53;;
74935;SDS011;63501;55.570;37.488;2022-11-20T14:35:39;11.30;;;5.25;;
74935;SDS011;63501;55.570;37.488;2022-11-20T14:38:11;12.90;;;5.53;;
74935;SDS011;63501;55.570;37.488;2022-11-20T14:40:39;12.57;;;6.38;;
74935;SDS011;63501;55.570;37.488;2022-11-20T14:43:26;11.73;;;4.88;;
74935;SDS011;63501;55.570;37.488;2022-11-20T14:46:02;15.57;;;6.40;;
74935;SDS011;63501;55.570;37.488;2022-11-20T14:48:31;14.27;;;6.00;;
74935;SDS011;63501;55.570;37.488;2022-11-20T14:51:02;11.63;;;4.60;;
74935;SDS011;63501;55.570;37.488;2022-11-20T14:53:27;9.25;;;3.53;;
74935;SDS011;63501;55.570;37.488;2022-11-20T14:55:57;6.80;;;3.25;;
74935;SDS011;63501;55.570;37.488;2022-11-20T14:58:28;11.30;;;4.28;;
74935;SDS011;63501;55.570;37.488;2022-11-20T15:01:01;8.43;;;4.53;;
74935;SDS011;63501;55.570;37.488;2022-11-20T15:03:39;12.15;;;4.72;;
74935;SDS011;63501;55.570;37.488;2022-11-20T15:06:06;10.95;;;4.95;;
74935;SDS011;63501;55.570;37.488;2022-11-20T15:08:35;12.63;;;5.93;;
74935;SDS011;63501;55.570;37.488;2022-11-20T15:11:01;18.67;;;7.28;;
74935;SDS011;63501;55.570;37.488;2022-11-20T15:16:03;13.55;;;5.57;;
74935;SDS011;63501;55.570;37.488;2022-11-20T15:18:37;9.70;;;4.85;;
74935;SDS011;63501;55.570;37.488;2022-11-20T15:21:13;11.60;;;5.72;;
74935;SDS011;63501;55.570;37.488;2022-11-20T15:23:43;16.00;;;5.13;;
74935;SDS011;63501;55.570;37.488;2022-11-20T15:26:10;13.25;;;6.75;;
74935;SDS011;63501;55.570;37.488;2022-11-20T15:31:19;13.00;;;5.82;;
74935;SDS011;63501;55.570;37.488;2022-11-20T15:33:47;14.25;;;5.88;;
74935;SDS011;63501;55.570;37.488;2022-11-20T15:36:13;10.45;;;5.10;;
74935;SDS011;63501;55.570;37.488;2022-11-20T15:38:38;12.82;;;5.22;;
74935;SDS011;63501;55.570;37.488;2022-11-20T15:41:04;10.05;;;4.80;;
74935;SDS011;63501;55.570;37.488;2022-11-20T15:43:30;11.65;;;4.88;;
74935;SDS011;63501;55.570;37.488;2022-11-20T15:45:58;9.35;;;4.07;;
74935;SDS011;63501;55.570;37.488;2022-11-20T15:53:32;12.52;;;5.60;;
74935;SDS011;63501;55.570;37.488;2022-11-20T15:55:58;10.68;;;4.63;;
74935;SDS011;63501;55.570;37.488;2022-11-20T15:58:23;12.48;;;5.40;;
74935;SDS011;63501;55.570;37.488;2022-11-20T16:00:49;13.02;;;5.47;;
74935;SDS011;63501;55.570;37.488;2022-11-20T16:03:15;18.55;;;8.55;;
74935;SDS011;63501;55.570;37.488;2022-11-20T16:05:41;15.27;;;7.43;;
74935;SDS011;63501;55.570;37.488;2022-11-20T16:08:07;15.32;;;6.55;;
74935;SDS011;63501;55.570;37.488;2022-11-20T16:10:33;16.38;;;6.57;;
74935;SDS011;63501;55.570;37.488;2022-11-20T16:12:59;11.63;;;5.53;;
74935;SDS011;63501;55.570;37.488;2022-11-20T16:15:50;11.30;;;5.10;;
74935;SDS011;63501;55.570;37.488;2022-11-20T16:18:21;7.55;;;3.72;;
74935;SDS011;63501;55.570;37.488;2022-11-20T16:20:48;11.30;;;4.65;;
74935;SDS011;63501;55.570;37.488;2022-11-20T16:23:16;14.25;;;6.63;;
74935;SDS011;63501;55.570;37.488;2022-11-20T16:25:42;16.20;;;6.18;;
74935;SDS011;63501;55.570;37.488;2022-11-20T16:28:18;12.57;;;5.85;;
74935;SDS011;63501;55.570;37.488;2022-11-20T16:30:44;14.70;;;6.05;;
74935;SDS011;63501;55.570;37.488;2022-11-20T16:33:14;16.48;;;7.05;;